Hopewell, Canada
Current Conditions -  °F | °C
As of 11:00 PM on Friday 24 Oct 2014 (Local Time) from CYHZ Reporting Station
Moderate Fog Moderate Fog  
Wind Chill: 12°   Ceiling: 100
Heat Index: 12°   Visibility: 0.25mi
Dew Point: 12°   Wind: 9mph
Humidity: 100%   Direction: 340°NNW
Pressure: 29.41"   Gusts: NA
Location:  45.47°N, 62.7°W
Report Text: CYHZ 250200Z 34008KT 1/4SM R14/3000FT/D R23/2400FT/N FG VV001 12/12 A2941 RMK FG8 SLP961 DENSITY ALT 800FT
Loading
Personal Weather Stations






























Interactive Weather Map
Tropical Storm Tracking
New forecast layout! Learn more

10-Day Weather Forecast

Advertisements
Track Severe Weather on mobile